Time;durP1;ratioP1;P1;durP2;ratioP2;P2;SDS_P1;SDS_P2;PMS_P1;PMS_P2;Temp;Humidity;BMP_temperature;BMP_pressure;BME280_temperature;BME280_humidity;BME280_pressure;Samples;Min_cycle;Max_cycle;Signal;HPM_P1;HPM_P2
2024/03/28 00:01:04;;;;;;;3.47;2.20;;;4.70;64.00;;;-0.25;100.00;93083.38;4973134;28;20050;-54
2024/03/28 00:03:30;;;;;;;3.75;2.45;;;4.70;64.10;;;-0.24;100.00;93084.94;4971539;28;20084;-54
2024/03/28 00:05:59;;;;;;;3.38;2.60;;;4.70;64.10;;;-0.18;100.00;93077.88;4972010;28;20092;-57
2024/03/28 00:08:28;;;;;;;2.97;2.40;;;4.70;64.20;;;-0.11;100.00;93069.78;4971489;28;20596;-54
2024/03/28 00:10:55;;;;;;;4.63;2.35;;;4.80;64.40;;;-0.08;100.00;93075.28;4972489;28;20041;-56
2024/03/28 00:13:22;;;;;;;4.53;2.97;;;4.80;64.40;;;-0.04;100.00;93058.00;4971498;28;20121;-55
2024/03/28 00:16:02;;;;;;;4.43;2.10;;;4.80;64.40;;;0.02;100.00;93053.56;4971667;28;20496;-56
2024/03/28 00:18:30;;;;;;;3.45;2.65;;;4.90;64.60;;;0.04;100.00;93050.72;4972843;28;20034;-55
2024/03/28 00:21:02;;;;;;;3.75;2.70;;;4.90;64.60;;;0.06;100.00;93045.97;4971703;28;20161;-56
2024/03/28 00:23:29;;;;;;;5.72;3.15;;;4.90;64.60;;;0.09;100.00;93037.59;4966819;28;20110;-53
2024/03/28 00:25:58;;;;;;;4.65;3.00;;;4.90;64.50;;;0.15;100.00;93041.78;4971420;28;20037;-57
2024/03/28 00:28:25;;;;;;;3.83;2.92;;;5.00;64.70;;;0.22;100.00;93040.50;4972725;28;20041;-57
2024/03/28 00:30:53;;;;;;;4.47;2.95;;;5.00;64.80;;;0.26;100.00;93039.97;4972526;28;20436;-51
2024/03/28 00:33:20;;;;;;;5.05;3.28;;;5.10;64.80;;;0.30;100.00;93041.81;4968217;28;20400;-54
2024/03/28 00:35:49;;;;;;;4.25;3.00;;;5.20;64.90;;;0.35;100.00;93044.44;4982756;23;20563;-49
2024/03/28 00:38:17;;;;;;;3.65;2.85;;;5.20;64.90;;;0.39;100.00;93036.84;4968838;28;20100;-52
2024/03/28 00:40:54;;;;;;;4.82;3.30;;;5.20;64.90;;;0.39;100.00;93029.75;4971353;28;20038;-51
2024/03/28 00:43:23;;;;;;;5.40;3.67;;;5.30;65.00;;;0.42;100.00;93026.59;4972358;28;20075;-51
2024/03/28 00:45:50;;;;;;;6.40;3.65;;;5.30;65.00;;;0.43;100.00;93025.56;4967020;28;20109;-50
2024/03/28 00:48:18;;;;;;;4.45;3.47;;;5.30;65.00;;;0.45;100.00;93020.84;4949440;28;20027;-53
2024/03/28 00:51:01;;;;;;;5.13;3.58;;;5.30;64.90;;;0.46;100.00;93017.16;4951991;28;20362;-51
2024/03/28 00:53:28;;;;;;;5.47;3.80;;;5.40;65.10;;;0.48;100.00;93009.06;4951478;28;20046;-53
2024/03/28 00:55:55;;;;;;;5.43;3.70;;;5.40;65.00;;;0.50;100.00;92995.69;4952047;28;20030;-54
2024/03/28 00:58:21;;;;;;;4.43;3.60;;;5.40;65.00;;;0.51;100.00;93000.69;4953137;28;20034;-54
2024/03/28 01:00:49;;;;;;;4.07;3.10;;;5.40;65.00;;;0.52;100.00;92998.84;4952747;28;20560;-51
2024/03/28 01:03:16;;;;;;;6.50;3.85;;;5.40;65.00;;;0.51;100.00;92992.03;4951649;28;20054;-53
2024/03/28 01:05:42;;;;;;;5.32;3.75;;;5.40;64.90;;;0.51;100.00;92992.03;4952406;28;20026;-50
2024/03/28 01:08:09;;;;;;;7.00;3.50;;;5.40;65.00;;;0.46;100.00;92985.75;4949521;28;20023;-50
2024/03/28 01:10:37;;;;;;;5.20;3.47;;;5.40;65.00;;;0.45;100.00;92981.56;4952453;28;20092;-50
2024/03/28 01:13:05;;;;;;;5.88;3.55;;;5.40;65.00;;;0.44;100.00;92980.00;4952591;28;20030;-50
2024/03/28 01:15:34;;;;;;;4.63;3.70;;;5.30;64.90;;;0.42;100.00;92983.91;4951527;28;20430;-50
2024/03/28 01:18:00;;;;;;;5.63;3.92;;;5.30;64.80;;;0.42;100.00;92989.16;4952011;28;20457;-50
2024/03/28 01:20:26;;;;;;;6.10;4.03;;;5.30;64.90;;;0.42;100.00;92983.91;4951620;28;20057;-50
2024/03/28 01:22:52;;;;;;;5.13;3.70;;;5.30;65.00;;;0.39;100.00;92998.31;4951762;28;20435;-50
2024/03/28 01:25:18;;;;;;;7.20;3.35;;;5.30;65.00;;;0.32;100.00;92999.66;4952349;28;20030;-51
2024/03/28 01:27:47;;;;;;;4.53;3.33;;;5.20;64.90;;;0.25;100.00;93007.75;4951418;28;20026;-50
2024/03/28 01:30:13;;;;;;;6.68;3.80;;;5.20;64.90;;;0.22;100.00;93003.84;4951913;28;20501;-51
2024/03/28 01:32:40;;;;;;;5.82;3.70;;;5.20;64.90;;;0.18;100.00;92988.91;4951286;28;20477;-52
2024/03/28 01:35:06;;;;;;;5.78;3.78;;;5.20;65.00;;;0.17;100.00;92987.34;4952279;28;20081;-52
2024/03/28 01:37:32;;;;;;;13.48;4.20;;;5.10;64.90;;;0.12;100.00;92984.72;4951599;28;20142;-50
2024/03/28 01:40:01;;;;;;;22.58;4.63;;;5.10;64.90;;;0.08;100.00;92989.72;4951558;28;20113;-53
2024/03/28 01:42:29;;;;;;;6.25;4.32;;;5.10;65.00;;;0.05;100.00;92992.06;4950619;28;20664;-53
2024/03/28 01:44:55;;;;;;;5.82;4.05;;;5.00;65.00;;;0.02;100.00;93003.06;4953529;28;20026;-52
2024/03/28 01:47:23;;;;;;;7.38;4.13;;;5.00;65.00;;;-0.04;100.00;92989.97;4951932;28;20061;-52
2024/03/28 01:49:50;;;;;;;5.38;3.78;;;4.90;64.90;;;-0.04;100.00;92991.81;4950852;28;20081;-50
2024/03/28 01:52:17;;;;;;;5.35;3.38;;;4.90;64.90;;;-0.09;100.00;92983.97;4951659;28;20058;-51
2024/03/28 01:54:46;;;;;;;6.63;3.83;;;4.90;64.90;;;-0.17;100.00;92976.63;4952174;28;20031;-55
2024/03/28 01:57:14;;;;;;;6.45;4.05;;;4.90;64.90;;;-0.21;100.00;92971.13;4944014;28;20468;-53
2024/03/28 01:59:42;;;;;;;8.25;4.28;;;4.80;64.90;;;-0.23;100.00;92949.66;4962103;28;20385;-49
2024/03/28 02:02:07;;;;;;;6.93;4.13;;;4.80;65.00;;;-0.28;100.00;92934.75;4961201;28;20477;-51
2024/03/28 02:04:36;;;;;;;7.55;4.13;;;4.70;64.90;;;-0.33;100.00;92928.75;4951833;28;20030;-50
2024/03/28 02:07:02;;;;;;;8.70;4.15;;;4.70;65.00;;;-0.34;100.00;92941.03;4951423;28;20058;-54
2024/03/28 02:09:29;;;;;;;7.30;3.65;;;4.70;65.10;;;-0.37;100.00;92941.56;4949084;28;20023;-48
2024/03/28 02:11:58;;;;;;;6.35;4.00;;;4.70;65.10;;;-0.40;100.00;92946.53;4950330;28;20118;-54
2024/03/28 02:14:24;;;;;;;8.18;4.93;;;4.60;65.10;;;-0.35;100.00;92964.81;4961627;28;20506;-54
2024/03/28 02:16:50;;;;;;;7.03;4.28;;;4.60;65.30;;;-0.37;100.00;92954.63;4951662;28;20027;-50
2024/03/28 02:19:16;;;;;;;6.05;3.83;;;4.60;65.40;;;-0.38;100.00;92955.66;4951514;28;20022;-50
2024/03/28 02:21:46;;;;;;;5.63;3.67;;;4.60;65.40;;;-0.40;100.00;92951.75;4950669;28;20036;-50
2024/03/28 02:24:14;;;;;;;6.03;3.83;;;4.60;65.50;;;-0.39;100.00;92950.72;4951502;28;20045;-50
2024/03/28 02:26:40;;;;;;;18.50;4.32;;;4.60;65.40;;;-0.37;100.00;92954.63;4950347;28;20031;-50
2024/03/28 02:29:06;;;;;;;6.35;4.03;;;4.60;65.50;;;-0.37;100.00;92966.94;4951650;28;20035;-50
2024/03/28 02:31:32;;;;;;;5.07;3.47;;;4.60;65.50;;;-0.40;100.00;92970.06;4950569;28;20093;-51
2024/03/28 02:33:58;;;;;;;5.55;3.72;;;4.60;65.40;;;-0.42;100.00;92964.31;4952174;28;20026;-50
2024/03/28 02:36:24;;;;;;;5.45;3.40;;;4.50;65.40;;;-0.48;100.00;92966.13;4955268;28;20039;-49
2024/03/28 02:38:50;;;;;;;5.93;3.70;;;4.50;65.40;;;-0.51;100.00;92972.66;4954327;28;20026;-52
2024/03/28 02:41:21;;;;;;;9.45;3.85;;;4.50;65.40;;;-0.53;100.00;92969.53;4955021;28;20026;-52
2024/03/28 02:43:47;;;;;;;11.25;4.72;;;4.50;65.40;;;-0.56;100.00;92967.44;4967872;28;20502;-50
2024/03/28 02:46:13;;;;;;;6.07;3.58;;;4.50;65.40;;;-0.54;100.00;92980.22;4954911;28;20574;-51
2024/03/28 02:48:39;;;;;;;6.07;3.75;;;4.40;65.40;;;-0.54;100.00;92975.00;4955321;28;20093;-51
2024/03/28 02:51:05;;;;;;;14.05;4.43;;;4.40;65.30;;;-0.51;100.00;92982.34;4953894;28;20038;-50
2024/03/28 02:53:31;;;;;;;7.50;4.10;;;4.40;65.40;;;-0.60;100.00;92981.25;4955095;28;20031;-49
2024/03/28 02:55:57;;;;;;;5.43;3.75;;;4.40;65.40;;;-0.62;100.00;92980.75;4953499;28;20058;-52
2024/03/28 02:58:23;;;;;;;6.03;3.60;;;4.30;65.30;;;-0.74;100.00;92989.59;4954957;28;20022;-51
2024/03/28 03:00:49;;;;;;;6.82;3.92;;;4.40;65.30;;;-0.72;100.00;92984.91;4955247;28;20380;-50
2024/03/28 03:03:15;;;;;;;8.98;4.30;;;4.30;65.30;;;-0.68;100.00;92979.97;4953845;28;20098;-52
2024/03/28 03:05:41;;;;;;;16.42;4.32;;;4.30;65.30;;;-0.68;100.00;92984.41;4954917;28;20385;-50
2024/03/28 03:08:07;;;;;;;6.40;4.07;;;4.30;65.40;;;-0.72;100.00;92973.69;4952873;28;20030;-50
2024/03/28 03:10:33;;;;;;;6.60;4.10;;;4.30;65.50;;;-0.72;100.00;92974.47;4954472;28;20039;-51
2024/03/28 03:12:59;;;;;;;6.22;4.20;;;4.30;65.70;;;-0.71;100.00;92977.84;4954734;28;20097;-52
2024/03/28 03:15:25;;;;;;;10.02;4.90;;;4.30;65.70;;;-0.71;100.00;92957.72;4953631;28;20481;-51
2024/03/28 03:17:50;;;;;;;8.25;4.05;;;4.30;65.80;;;-0.73;100.00;92957.19;4954603;28;20023;-51
2024/03/28 03:20:16;;;;;;;6.07;3.65;;;4.30;65.90;;;-0.70;100.00;92945.44;4953717;28;20033;-51
2024/03/28 03:22:51;;;;;;;5.53;3.47;;;4.30;65.90;;;-0.73;100.00;92938.09;4954594;28;20061;-50
2024/03/28 03:25:25;;;;;;;6.30;3.17;;;4.30;66.00;;;-0.74;100.00;92936.53;4954366;28;20653;-53
2024/03/28 03:36:07;;;;;;;3.92;2.60;;;4.20;65.90;;;-0.94;100.00;92913.75;4953940;28;20049;-51
2024/03/28 03:38:33;;;;;;;4.55;2.72;;;4.20;65.80;;;-0.89;100.00;92911.16;4962699;28;20023;-50
2024/03/28 03:41:00;;;;;;;4.40;2.70;;;4.10;65.70;;;-0.89;100.00;92915.59;4953009;28;20489;-50
2024/03/28 03:43:26;;;;;;;5.45;2.72;;;4.20;65.90;;;-0.94;100.00;92905.91;4955268;28;20023;-50
2024/03/28 03:45:52;;;;;;;3.63;2.42;;;4.10;65.80;;;-0.93;100.00;92902.25;4948025;28;20034;-55
2024/03/28 03:48:18;;;;;;;3.72;2.65;;;4.10;65.80;;;-0.89;100.00;92905.13;4949848;28;20677;-51
2024/03/28 03:50:44;;;;;;;4.65;2.70;;;4.10;65.80;;;-0.89;100.00;92897.31;4948365;28;20034;-51
2024/03/28 03:53:10;;;;;;;4.28;2.83;;;4.10;65.80;;;-0.86;100.00;92905.41;4949718;28;20027;-52
2024/03/28 03:55:36;;;;;;;5.20;2.92;;;4.20;66.00;;;-0.85;100.00;92903.56;4952903;28;20528;-53
2024/03/28 03:58:03;;;;;;;4.30;2.53;;;4.20;66.10;;;-0.83;100.00;92902.28;4947793;28;20030;-51
2024/03/28 04:00:29;;;;;;;5.32;3.13;;;4.20;66.10;;;-0.76;100.00;92892.34;4949966;28;20555;-56
2024/03/28 04:02:55;;;;;;;9.02;3.17;;;4.20;66.10;;;-0.74;100.00;92892.88;4945551;28;20034;-53
2024/03/28 04:05:21;;;;;;;6.22;3.03;;;4.20;66.30;;;-0.70;100.00;92886.06;4953150;28;20030;-50
2024/03/28 04:07:47;;;;;;;4.40;2.97;;;4.20;66.30;;;-0.65;100.00;92882.69;4951845;28;20027;-50
2024/03/28 04:10:13;;;;;;;5.88;3.20;;;4.30;66.40;;;-0.62;100.00;92873.56;4953079;28;20528;-51
2024/03/28 04:12:38;;;;;;;5.03;3.15;;;4.30;66.30;;;-0.62;100.00;92871.72;4951765;28;20058;-53
2024/03/28 04:15:05;;;;;;;4.53;2.70;;;4.30;66.30;;;-0.60;100.00;92868.84;4950321;28;20122;-50
2024/03/28 04:17:34;;;;;;;4.80;2.90;;;4.40;66.30;;;-0.60;100.00;92869.59;4952649;28;20050;-56
2024/03/28 04:20:02;;;;;;;4.18;2.60;;;4.40;66.40;;;-0.49;100.00;92868.56;4950429;28;20037;-50
2024/03/28 04:22:29;;;;;;;4.65;2.95;;;4.50;66.40;;;-0.44;100.00;92862.53;4950031;28;20034;-50
2024/03/28 04:24:56;;;;;;;4.25;2.70;;;4.50;66.40;;;-0.39;100.00;92857.31;4952662;28;20027;-57
2024/03/28 04:27:22;;;;;;;4.45;2.85;;;4.50;66.40;;;-0.34;100.00;92854.72;4951465;28;20110;-55
2024/03/28 04:29:48;;;;;;;4.68;2.90;;;4.60;66.50;;;-0.33;100.00;92852.88;4952276;28;20034;-52
2024/03/28 04:32:14;;;;;;;5.53;2.95;;;4.60;66.40;;;-0.25;100.00;92857.59;4949636;28;20084;-51
2024/03/28 04:34:40;;;;;;;4.57;2.75;;;4.70;66.50;;;-0.19;100.00;92866.19;4949630;28;20026;-51
2024/03/28 04:37:05;;;;;;;4.35;2.83;;;4.70;66.50;;;-0.13;100.00;92868.53;4952615;28;20124;-50
2024/03/28 04:39:31;;;;;;;3.33;2.53;;;4.80;66.50;;;-0.07;100.00;92871.94;4950992;28;20058;-51
2024/03/28 04:41:57;;;;;;;3.78;2.50;;;4.80;66.50;;;-0.05;100.00;92875.88;4952488;28;20026;-51
2024/03/28 04:44:23;;;;;;;4.18;2.55;;;4.90;66.50;;;-0.02;100.00;92882.41;4951864;28;20109;-51
2024/03/28 04:46:49;;;;;;;6.18;2.58;;;5.00;66.50;;;-0.02;100.00;92880.56;4952397;28;20398;-52
2024/03/28 04:49:15;;;;;;;6.13;2.95;;;5.00;66.40;;;0.03;100.00;92874.53;4952078;28;20456;-52
2024/03/28 04:51:42;;;;;;;3.42;2.38;;;5.10;66.50;;;0.10;100.00;92864.59;4948800;28;20536;-49
2024/03/28 04:54:08;;;;;;;5.13;2.83;;;5.10;66.50;;;0.18;100.00;92871.88;4952014;28;20076;-51
2024/03/28 04:56:39;;;;;;;4.13;2.47;;;5.20;66.60;;;0.22;100.00;92872.16;4951021;28;20023;-51
2024/03/28 04:59:05;;;;;;;4.28;2.85;;;5.20;66.60;;;0.27;100.00;92868.72;4949912;28;20035;-50
2024/03/28 05:01:31;;;;;;;4.63;2.67;;;5.30;66.60;;;0.31;100.00;92888.88;4963388;28;20078;-51
2024/03/28 05:03:57;;;;;;;4.72;2.83;;;5.30;66.60;;;0.37;100.00;92881.78;4950907;28;20123;-52
2024/03/28 05:06:23;;;;;;;3.85;2.92;;;5.40;66.60;;;0.41;100.00;92891.47;4951715;28;20473;-51
2024/03/28 05:08:49;;;;;;;5.07;2.95;;;5.40;66.60;;;0.46;100.00;92890.66;4950710;28;20018;-53
2024/03/28 05:11:16;;;;;;;5.28;2.95;;;5.50;66.70;;;0.49;100.00;92877.03;4952098;28;20034;-53
2024/03/28 05:13:44;;;;;;;4.63;2.90;;;5.60;66.60;;;0.54;100.00;92866.53;4950314;28;20085;-52
2024/03/28 05:16:14;;;;;;;4.05;2.70;;;5.60;66.60;;;0.59;100.00;92865.72;4951801;28;20038;-52
2024/03/28 05:18:42;;;;;;;19.42;3.35;;;5.70;66.60;;;0.63;100.00;92877.25;4951904;28;20506;-53
2024/03/28 05:21:09;;;;;;;4.25;2.83;;;5.70;66.50;;;0.67;100.00;92880.91;4950658;28;20528;-54
2024/03/28 05:23:35;;;;;;;5.03;2.88;;;5.80;66.40;;;0.66;100.00;92868.88;4951150;28;20029;-50
2024/03/28 05:26:01;;;;;;;5.28;3.92;;;5.80;66.30;;;0.69;100.00;92882.22;4949307;28;20027;-50
2024/03/28 05:28:27;;;;;;;6.63;4.30;;;5.90;66.40;;;0.75;100.00;92869.84;4951430;28;20421;-51
2024/03/28 05:30:53;;;;;;;8.32;4.43;;;5.90;66.40;;;0.72;100.00;92866.97;4949291;28;20120;-50
2024/03/28 05:33:19;;;;;;;6.07;4.18;;;5.90;66.40;;;0.71;100.00;92863.59;4948680;28;20513;-50
2024/03/28 05:35:45;;;;;;;10.65;4.18;;;6.00;66.50;;;0.80;100.00;92866.44;4951302;28;20027;-50
2024/03/28 05:38:11;;;;;;;9.13;4.82;;;6.00;66.50;;;0.81;100.00;92854.88;4950696;28;20022;-50
2024/03/28 05:40:37;;;;;;;7.55;4.55;;;6.00;66.50;;;0.85;100.00;92855.94;4951265;28;20062;-50
2024/03/28 05:43:03;;;;;;;6.78;4.25;;;6.10;66.50;;;0.83;100.00;92844.94;4951430;28;20113;-50
2024/03/28 05:45:29;;;;;;;5.57;3.40;;;6.10;66.50;;;0.87;100.00;92838.09;4948857;28;20042;-54
2024/03/28 05:47:55;;;;;;;6.28;3.90;;;6.10;66.60;;;0.97;100.00;92835.38;4951231;28;20045;-51
2024/03/28 05:50:21;;;;;;;5.65;3.63;;;6.10;66.60;;;1.04;100.00;92848.22;4950285;28;20485;-55
2024/03/28 05:52:47;;;;;;;6.22;3.70;;;6.10;66.60;;;1.10;100.00;92868.13;4950815;28;20496;-51
2024/03/28 05:55:13;;;;;;;6.65;3.80;;;6.20;66.80;;;1.16;100.00;92874.91;4950831;28;20485;-52
2024/03/28 05:57:39;;;;;;;7.00;3.90;;;6.20;66.80;;;1.23;100.00;92892.94;4947190;28;20401;-54
2024/03/28 06:00:07;;;;;;;5.78;3.63;;;6.30;66.90;;;1.26;100.00;92892.41;4951333;28;20149;-50
2024/03/28 06:02:32;;;;;;;8.35;4.90;;;6.30;66.80;;;1.27;100.00;92883.47;4946945;28;20113;-54
2024/03/28 06:04:58;;;;;;;6.05;3.90;;;6.40;66.80;;;1.27;100.00;92892.13;4950802;28;20125;-52
2024/03/28 06:07:24;;;;;;;6.45;4.03;;;6.50;66.70;;;1.35;100.00;92883.69;4950519;28;20052;-51
2024/03/28 06:09:50;;;;;;;6.00;4.50;;;6.60;66.70;;;1.41;100.00;92862.66;4949488;28;20085;-50
2024/03/28 06:12:16;;;;;;;8.73;4.90;;;6.70;66.60;;;1.47;100.00;92872.03;4950556;28;20022;-50
2024/03/28 06:14:42;;;;;;;6.82;3.78;;;6.70;66.50;;;1.49;100.00;92839.25;4950113;28;20030;-51
2024/03/28 06:17:08;;;;;;;5.30;3.75;;;6.80;66.40;;;1.53;100.00;92842.88;4950797;28;20030;-55
2024/03/28 06:19:33;;;;;;;8.00;4.15;;;6.90;66.30;;;1.53;100.00;92831.59;4950867;28;20030;-52
2024/03/28 06:21:59;;;;;;;6.30;3.88;;;6.90;66.30;;;1.52;100.00;92838.69;4948121;28;20496;-51
2024/03/28 06:24:25;;;;;;;5.75;3.78;;;6.90;66.20;;;1.59;100.00;92857.50;4950673;28;20493;-51
2024/03/28 06:26:51;;;;;;;5.35;3.63;;;6.90;66.20;;;1.60;100.00;92853.84;4949859;28;20466;-52
2024/03/28 06:29:17;;;;;;;8.63;3.80;;;7.00;66.10;;;1.64;100.00;92848.06;4950829;28;20457;-52
2024/03/28 06:31:44;;;;;;;6.82;3.97;;;7.00;66.20;;;1.65;100.00;92844.38;4947197;28;20042;-50
2024/03/28 06:34:11;;;;;;;5.18;3.65;;;7.00;66.10;;;1.62;100.00;92849.09;4943605;28;20058;-53
2024/03/28 06:36:36;;;;;;;5.32;3.83;;;7.00;66.10;;;1.66;100.00;92849.34;4950590;28;20633;-50
2024/03/28 06:39:02;;;;;;;5.15;4.05;;;7.00;66.10;;;1.69;100.00;92851.41;4949682;28;20026;-51
2024/03/28 06:41:28;;;;;;;6.20;4.25;;;7.00;66.10;;;1.68;100.00;92851.69;4950385;28;20034;-50
2024/03/28 06:43:54;;;;;;;7.57;4.15;;;7.00;66.10;;;1.70;100.00;92881.06;4952346;28;20448;-52
2024/03/28 06:46:20;;;;;;;6.28;4.30;;;7.00;66.10;;;1.74;100.00;92918.81;4948763;28;20035;-53
2024/03/28 06:48:46;;;;;;;6.63;4.55;;;7.00;66.10;;;1.63;100.00;92960.13;4950442;28;20019;-50
2024/03/28 06:51:12;;;;;;;7.38;5.13;;;7.00;66.20;;;1.62;100.00;92980.31;4949373;28;20061;-51
2024/03/28 06:53:38;;;;;;;10.32;6.20;;;7.00;66.30;;;1.57;100.00;93008.44;4950342;28;20042;-53
2024/03/28 06:56:05;;;;;;;10.95;6.55;;;7.00;66.40;;;1.58;100.00;92991.63;4949619;28;20058;-51
2024/03/28 06:58:30;;;;;;;11.52;7.80;;;6.90;66.30;;;1.57;100.00;93011.84;4950673;28;20034;-51
2024/03/28 07:01:02;;;;;;;15.45;8.13;;;6.90;66.40;;;1.61;100.00;92986.63;4950760;28;20052;-50
2024/03/28 07:03:28;;;;;;;18.63;8.70;;;6.90;66.40;;;1.65;100.00;92988.69;4949117;28;20030;-53
2024/03/28 07:05:54;;;;;;;13.85;8.80;;;6.90;66.30;;;1.67;100.00;92991.84;4950287;28;20339;-54
2024/03/28 07:08:20;;;;;;;15.80;8.57;;;7.00;66.40;;;1.70;100.00;92978.19;4943882;28;20096;-53
2024/03/28 07:10:46;;;;;;;10.73;7.43;;;7.00;66.30;;;1.73;100.00;92988.13;4942449;28;21146;-56
2024/03/28 07:13:12;;;;;;;11.88;7.68;;;7.00;66.20;;;1.73;100.00;93022.25;4950032;28;20586;-53
2024/03/28 07:15:39;;;;;;;14.95;8.45;;;7.10;66.30;;;1.74;100.00;93069.22;4949697;28;20045;-52
2024/03/28 07:18:05;;;;;;;15.95;8.52;;;7.10;66.30;;;1.73;100.00;93080.00;4950635;28;20088;-56
2024/03/28 07:20:31;;;;;;;13.20;8.25;;;7.10;66.40;;;1.76;100.00;93108.31;4942465;28;20063;-56
2024/03/28 07:22:57;;;;;;;13.63;8.45;;;7.10;66.40;;;1.75;100.00;93146.09;4953780;28;20022;-49
2024/03/28 07:25:22;;;;;;;13.00;8.52;;;7.00;66.50;;;1.76;100.00;93179.19;4953592;28;20465;-49
2024/03/28 07:27:48;;;;;;;14.60;8.18;;;7.00;66.80;;;1.77;100.00;93194.66;4952377;28;20089;-48
2024/03/28 07:30:14;;;;;;;12.10;7.75;;;7.00;66.90;;;1.78;100.00;93198.84;4953352;28;20081;-48
2024/03/28 07:32:43;;;;;;;13.05;7.63;;;7.00;67.00;;;1.77;100.00;93199.13;4947661;28;20022;-49
2024/03/28 07:35:09;;;;;;;17.23;9.38;;;7.00;67.00;;;1.80;100.00;93204.63;4953327;28;20413;-53
2024/03/28 07:37:35;;;;;;;17.58;9.77;;;7.00;67.80;;;1.85;100.00;93214.34;4953510;28;20042;-50
2024/03/28 07:40:01;;;;;;;19.58;10.02;;;7.00;67.10;;;1.87;100.00;93227.97;4949279;28;20019;-47
2024/03/28 07:42:26;;;;;;;18.60;10.40;;;7.00;67.20;;;1.89;100.00;93235.59;4953093;28;20023;-50
2024/03/28 07:44:52;;;;;;;21.27;10.68;;;7.00;67.30;;;1.94;100.00;93236.34;4953191;28;20118;-53
2024/03/28 07:47:18;;;;;;;20.63;11.00;;;7.00;67.50;;;2.01;100.00;93243.97;4953119;28;20018;-50
2024/03/28 07:49:46;;;;;;;21.90;10.70;;;7.00;67.50;;;2.00;100.00;93253.66;4952938;28;20110;-53
2024/03/28 07:52:12;;;;;;;20.02;11.18;;;7.00;67.50;;;2.03;100.00;93283.84;4952565;28;20042;-48
2024/03/28 07:54:38;;;;;;;24.23;12.02;;;7.00;67.60;;;2.02;100.00;93292.78;4953470;28;20023;-49
2024/03/28 07:57:05;;;;;;;21.80;11.88;;;7.00;67.80;;;2.05;100.00;93311.44;4951186;28;20100;-49
2024/03/28 07:59:31;;;;;;;24.42;11.52;;;7.00;68.10;;;2.07;100.00;93325.09;4946925;28;20027;-48
2024/03/28 08:01:57;;;;;;;24.95;11.30;;;7.00;68.20;;;2.10;100.00;93329.03;4951792;28;20026;-49
2024/03/28 08:04:23;;;;;;;26.55;11.48;;;7.00;68.40;;;2.08;100.00;93339.78;4952876;28;20034;-48
2024/03/28 08:06:49;;;;;;;45.35;11.65;;;7.00;68.50;;;2.05;100.00;93361.31;4952762;28;20504;-49
2024/03/28 08:09:15;;;;;;;21.90;9.35;;;7.00;68.80;;;2.05;100.00;93366.56;4951875;28;20041;-49
2024/03/28 08:11:43;;;;;;;26.98;10.23;;;7.00;68.80;;;2.10;100.00;93360.53;4952664;28;20065;-50
2024/03/28 08:14:11;;;;;;;27.73;9.10;;;6.90;68.70;;;2.08;100.00;93371.31;4952127;28;20485;-56
2024/03/28 08:16:38;;;;;;;23.52;8.57;;;7.00;68.80;;;2.07;100.00;93377.63;4952807;28;20023;-49
2024/03/28 08:19:04;;;;;;;21.35;8.63;;;7.00;68.90;;;2.08;100.00;93384.44;4952836;28;20173;-49
2024/03/28 08:21:30;;;;;;;19.73;8.77;;;7.00;68.80;;;2.09;100.00;93386.00;4951543;28;20118;-48
2024/03/28 08:23:56;;;;;;;19.17;8.88;;;7.00;68.90;;;2.14;100.00;93393.09;4952693;28;20026;-47
2024/03/28 08:26:22;;;;;;;21.80;8.32;;;7.10;68.90;;;2.19;100.00;93408.03;4951593;28;20027;-53
2024/03/28 08:28:48;;;;;;;15.35;7.20;;;7.10;68.90;;;2.23;100.00;93407.28;4952598;28;20046;-50
2024/03/28 08:31:14;;;;;;;16.65;7.72;;;7.20;68.90;;;2.22;100.00;93407.53;4949297;28;20596;-48
2024/03/28 08:33:40;;;;;;;15.85;7.57;;;7.20;68.80;;;2.28;100.00;93411.72;4951263;28;20541;-48
2024/03/28 08:36:08;;;;;;;19.48;8.07;;;7.30;68.70;;;2.35;100.00;93424.56;4952160;28;20121;-51
2024/03/28 08:38:34;;;;;;;14.13;7.13;;;7.40;68.70;;;2.41;100.00;93426.94;4952131;28;20060;-49
2024/03/28 08:41:00;;;;;;;20.08;7.82;;;7.40;68.60;;;2.48;100.00;93416.94;4952360;28;20037;-49
2024/03/28 08:43:26;;;;;;;12.52;5.90;;;7.50;68.60;;;2.57;100.00;93416.38;4954688;28;20027;-48
2024/03/28 08:45:53;;;;;;;13.93;6.80;;;7.60;68.60;;;2.55;100.00;93414.03;4951182;28;20058;-48
2024/03/28 08:48:20;;;;;;;13.63;7.22;;;7.70;68.60;;;2.61;100.00;93423.47;4952201;28;20023;-48
2024/03/28 08:50:47;;;;;;;15.93;6.50;;;7.80;68.50;;;2.69;100.00;93425.53;4951449;28;20034;-49
2024/03/28 08:53:13;;;;;;;13.38;4.65;;;7.90;68.50;;;2.79;100.00;93437.91;4951698;28;20501;-48
2024/03/28 08:55:39;;;;;;;14.48;4.63;;;8.00;68.40;;;2.90;100.00;93446.53;4951917;28;20028;-54
2024/03/28 08:58:05;;;;;;;10.02;4.43;;;8.10;68.30;;;2.97;100.00;93442.53;4951389;28;20339;-49
2024/03/28 09:00:33;;;;;;;8.20;3.50;;;8.20;68.30;;;3.09;100.00;93431.72;4951650;28;20073;-50
2024/03/28 09:03:00;;;;;;;5.20;2.88;;;8.40;68.40;;;3.12;100.00;93444.34;4950430;28;20054;-52
2024/03/28 09:05:26;;;;;;;3.60;2.50;;;8.50;68.30;;;3.19;100.00;93441.41;4951931;28;20038;-48
2024/03/28 09:07:53;;;;;;;3.95;2.35;;;8.60;68.20;;;3.20;100.00;93449.03;4950829;28;20046;-49
2024/03/28 09:10:19;;;;;;;3.88;2.80;;;8.70;68.10;;;3.35;100.00;93447.38;4951678;28;20066;-49
2024/03/28 09:12:47;;;;;;;9.07;5.00;;;8.80;68.10;;;3.41;100.00;93444.44;4951294;28;20076;-54
2024/03/28 09:15:14;;;;;;;3.40;2.28;;;8.90;68.10;;;3.58;100.00;93438.84;4950408;28;20045;-49
2024/03/28 09:17:40;;;;;;;3.00;1.63;;;9.00;68.00;;;3.63;100.00;93432.75;4951636;28;20418;-50
2024/03/28 09:20:07;;;;;;;2.75;1.23;;;9.00;68.60;;;3.62;100.00;93423.28;4950974;28;20026;-52
2024/03/28 09:22:34;;;;;;;2.75;1.23;;;9.10;67.80;;;3.59;100.00;93437.78;4951278;28;20019;-49
2024/03/28 09:25:04;;;;;;;2.03;1.20;;;9.20;67.70;;;3.68;100.00;93436.13;4949061;28;20505;-49
2024/03/28 09:27:31;;;;;;;1.58;1.13;;;9.20;67.60;;;3.73;100.00;93427.44;4950197;28;20130;-53
2024/03/28 09:29:57;;;;;;;1.10;0.98;;;9.30;67.60;;;3.84;100.00;93438.69;4951206;28;20054;-49
2024/03/28 09:32:23;;;;;;;1.85;1.30;;;9.40;67.50;;;3.87;100.00;93459.97;4947249;28;20088;-48
2024/03/28 09:34:49;;;;;;;1.20;0.93;;;9.40;67.40;;;3.97;100.00;93459.13;4951557;28;20474;-48
2024/03/28 09:37:17;;;;;;;1.35;1.00;;;9.50;67.40;;;4.08;100.00;93460.63;4951089;28;20130;-49
2024/03/28 09:39:48;;;;;;;1.10;0.80;;;9.60;67.40;;;4.09;100.00;93464.06;4948212;28;20540;-49
2024/03/28 09:42:24;;;;;;;0.85;0.60;;;9.70;67.40;;;4.14;100.00;93454.25;4947121;28;20397;-48
2024/03/28 09:44:50;;;;;;;1.30;0.60;;;9.70;67.40;;;4.17;100.00;93482.69;4951749;28;20425;-50
2024/03/28 09:47:21;;;;;;;1.42;0.70;;;9.70;67.20;;;4.15;100.00;93476.91;4951422;28;20114;-51
2024/03/28 09:49:48;;;;;;;0.88;0.80;;;9.70;67.10;;;4.21;100.00;93485.56;4948004;28;20033;-50
2024/03/28 09:52:15;;;;;;;1.08;0.80;;;9.60;67.00;;;4.28;100.00;93488.66;4950343;28;20041;-51
2024/03/28 09:54:45;;;;;;;0.63;0.63;;;9.60;67.00;;;4.27;100.00;93476.56;4948340;28;20019;-53
2024/03/28 09:57:11;;;;;;;1.80;0.70;;;9.60;67.00;;;4.37;100.00;93491.50;4948718;28;20026;-53
2024/03/28 09:59:37;;;;;;;2.50;0.70;;;9.60;67.00;;;4.30;100.00;93489.19;4948025;28;20031;-51
2024/03/28 10:03:05;;;;;;;0.95;0.63;;;9.60;66.90;;;4.43;100.00;93492.25;4949040;28;20401;-53
2024/03/28 10:05:34;;;;;;;1.58;0.70;;;9.70;66.70;;;4.45;100.00;93503.28;4931389;28;20500;-52
2024/03/28 10:08:04;;;;;;;2.45;0.70;;;9.70;66.70;;;4.50;100.00;93495.34;4945800;28;20436;-53
2024/03/28 10:10:32;;;;;;;1.38;0.63;;;9.80;66.60;;;4.53;100.00;93497.44;4951239;28;20397;-55
2024/03/28 10:13:05;;;;;;;1.05;0.55;;;9.80;66.50;;;4.59;100.00;93496.31;4949733;28;20038;-52
2024/03/28 10:15:32;;;;;;;2.80;0.82;;;9.90;66.40;;;4.60;100.00;93500.53;4949121;28;20087;-50
2024/03/28 10:18:01;;;;;;;0.60;0.50;;;9.90;66.30;;;4.68;100.00;93496.50;4947266;28;20058;-53
2024/03/28 10:20:28;;;;;;;1.00;0.45;;;9.90;66.20;;;4.69;100.00;93493.59;4948460;28;20038;-54
2024/03/28 10:22:54;;;;;;;0.47;0.40;;;9.90;66.10;;;4.68;100.00;93488.59;4947672;28;20462;-55
2024/03/28 10:25:25;;;;;;;0.40;0.40;;;10.00;66.00;;;4.70;100.00;93497.00;4943412;28;20113;-53
2024/03/28 10:28:02;;;;;;;0.73;0.40;;;10.00;65.80;;;4.76;100.00;93488.75;4945421;28;20031;-55
2024/03/28 10:30:28;;;;;;;0.50;0.50;;;10.00;65.60;;;4.83;100.00;93505.06;4948472;28;20041;-56